ADDS METAR Data INFO
IDs: Format: Raw Decoded Include TAF

Data at: 1206 UTC 21 Jun 2018

KEWN 211154Z 24004KT 8SM CLR 26/23 A2982 RMK AO2 SLP098 60000 T02560233 10256 20228 53007
KEWN 211054Z 22006KT 6SM BR CLR 23/23 A2980 RMK AO2 SLP092 T02330228
KEWN 210954Z 22005KT 7SM FEW120 23/23 A2980 RMK AO2 SLP092 T02280228
KEWN 210854Z AUTO 25004KT 8SM CLR 24/23 A2980 RMK AO2 RAE20 SLP090 P0000 60000 T02390228 56012
KEWN 210754Z AUTO 21004KT 9SM -RA CLR 23/23 A2981 RMK AO2 RAB07E17B48 SLP093 P0000 T02330233
KEWN 210654Z AUTO 20003KT 9SM CLR 23/23 A2982 RMK AO2 RAB0555E22 SLP097 P0000 T02330233
KEWN 210554Z AUTO 00000KT 10SM SCT110 24/23 A2984 RMK AO2 SLP103 60000 T02440233 10267 20239 58013
KEWN 210454Z AUTO 16005KT 10SM CLR 24/23 A2985 RMK AO2 RAB00E15 SLP106 P0000 T02390228 403390228
KEWN 210410Z AUTO 13004KT 10SM -RA FEW042 24/23 A2986 RMK AO2 RAB00 P0000 T02390228
KEWN 210354Z AUTO 11003KT 10SM VCTS CLR 24/23 A2987 RMK AO2 LTG DSNT E SLP114 T02440228
KEWN 210325Z AUTO 08006KT 10SM FEW017 SCT026 25/23 A2987 RMK AO2 LTG DSNT E AND S T02500228
KEWN 210312Z AUTO 03011G17KT 10SM FEW017 BKN026 BKN046 25/23 A2988 RMK AO2 T02500233
KEWN 210254Z AUTO 00000KT 10SM SCT046 BKN090 BKN110 26/24 A2987 RMK AO2 LTG DSNT NE SLP116 T02610239 53019
KEWN 210154Z AUTO 21003KT 10SM CLR 26/23 A2983 RMK AO2 SLP102 T02560233
KEWN 210054Z 21005KT 10SM CLR 26/23 A2982 RMK AO2 SLP097 T02610233
KEWN 210012Z 00000KT 10SM FEW002 27/23 A2982 RMK AO2 T02670233
KEWN 202354Z 00000KT 10SM CLR 27/23 A2982 RMK AO2 SLP097 T02670233 10339 20267 53001
KEWN 202254Z 17006KT 9SM CLR 28/24 A2981 RMK AO2 SLP095 T02830244
KEWN 202154Z 17007KT 9SM CLR 28/24 A2980 RMK AO2 LTG DSNT NE AND E SLP090 T02830239
KEWN 202054Z 20013KT 10SM FEW048 29/23 A2981 RMK AO2 LTG DSNT E SLP095 T02940233 56016
KEWN 202044Z 20007KT 10SM VCTS SCT050 31/24 A2982 RMK AO2 LTG DSNT E AND S T03060239
KEWN 201954Z 22003KT 10SM SCT046 32/24 A2983 RMK AO2 LTG DSNT S SLP101 T03220239
KEWN 201854Z 00000KT 10SM FEW042 33/24 A2984 RMK AO2 SLP104 T03330239
KEWN 201754Z 03006KT 10SM CLR 33/24 A2986 RMK AO2 SLP112 T03280239 10328 20261 58010
KEWN 201654Z VRB03KT 10SM CLR 32/23 A2988 RMK AO2 SLP116 T03170233
KEWN 201554Z 00000KT 10SM CLR 31/23 A2988 RMK AO2 SLP119 T03060233
KEWN 201454Z 00000KT 10SM CLR 29/23 A2989 RMK AO2 SLP122 T02940233 53001
KEWN 201354Z 00000KT 10SM CLR 28/23 A2989 RMK AO2 SLP120 T02830228
KEWN 201254Z 00000KT 10SM CLR 27/23 A2989 RMK AO2 SLP121 T02720233
KEWN 201154Z 34004KT 8SM CLR 26/23 A2989 RMK AO2 SLP121 T02610233 10261 20228 53011
KEWN 201054Z 05003KT 3SM BR CLR 23/23 A2988 RMK AO2 SLP116 T02330233
KEWN 200954Z 00000KT 5SM BR CLR 23/23 A2986 RMK AO2 SLP112 T02280228
KEWN 200854Z AUTO 00000KT 7SM CLR 23/23 A2986 RMK AO2 SLP110 T02280228 56005
KEWN 200754Z AUTO 00000KT 8SM CLR 23/23 A2986 RMK AO2 SLP111 T02330228
KEWN 200654Z AUTO 00000KT 10SM CLR 24/23 A2987 RMK AO2 SLP113 T02390228
KEWN 200554Z AUTO 03004KT 10SM CLR 25/23 A2987 RMK AO2 SLP116 T02500228 10306 20250 50003
KEWN 200454Z AUTO 31008G15KT 8SM FEW018 FEW024 SCT070 28/25 A2988 RMK AO2 SLP119 T02780250 403500222
KEWN 200354Z AUTO 24005KT 8SM CLR 27/24 A2987 RMK AO2 SLP113 T02720244
KEWN 200254Z AUTO 21003KT 8SM FEW070 27/24 A2986 RMK AO2 SLP112 T02670244 51011
KEWN 200154Z AUTO 22004KT 8SM CLR 28/25 A2986 RMK AO2 SLP111 T02830250
KEWN 200054Z 21003KT 9SM CLR 29/26 A2985 RMK AO2 SLP106 T02890256